Time;durP1;ratioP1;P1;durP2;ratioP2;P2;SDS_P1;SDS_P2;PMS_P1;PMS_P2;Temp;Humidity;BMP_temperature;BMP_pressure;BME280_temperature;BME280_humidity;BME280_pressure;Samples;Min_cycle;Max_cycle;Signal;HPM_P1;HPM_P2
2023/04/16 00:00:38;;;;;;;19.80;14.27;;;7.90;99.90;;;;;;5069995;28;20244;-49
2023/04/16 00:03:06;;;;;;;19.77;13.07;;;7.90;99.90;;;;;;5052806;28;20216;-50
2023/04/16 00:05:33;;;;;;;17.10;13.13;;;7.90;99.90;;;;;;5057427;28;20197;-46
2023/04/16 00:08:00;;;;;;;18.37;12.53;;;7.80;99.90;;;;;;5060981;28;20226;-48
2023/04/16 00:10:27;;;;;;;16.93;13.93;;;7.80;99.90;;;;;;5044742;28;20205;-45
2023/04/16 00:12:54;;;;;;;18.17;12.83;;;7.80;99.90;;;;;;5061686;28;20203;-45
2023/04/16 00:15:22;;;;;;;19.97;13.97;;;7.80;99.90;;;;;;5056814;28;20201;-46
2023/04/16 00:17:49;;;;;;;17.10;12.83;;;7.80;99.90;;;;;;5068839;28;20253;-44
2023/04/16 00:20:18;;;;;;;19.47;13.07;;;7.80;99.90;;;;;;5048167;28;20215;-51
2023/04/16 00:22:45;;;;;;;16.87;13.17;;;7.80;99.90;;;;;;5059700;28;20207;-47
2023/04/16 00:25:13;;;;;;;19.67;13.73;;;7.80;99.90;;;;;;5036183;28;20213;-51
2023/04/16 00:27:40;;;;;;;18.47;12.77;;;7.80;99.90;;;;;;5070765;28;20218;-45
2023/04/16 00:30:08;;;;;;;20.53;12.77;;;7.80;99.90;;;;;;5063412;28;20226;-53
2023/04/16 00:32:35;;;;;;;21.30;12.53;;;7.80;99.90;;;;;;5069371;28;20298;-49
2023/04/16 00:35:02;;;;;;;19.70;13.43;;;7.80;99.90;;;;;;5049122;28;20251;-52
2023/04/16 00:37:31;;;;;;;18.57;13.73;;;7.90;99.90;;;;;;5059169;28;21075;-46
2023/04/16 00:40:20;;;;;;;17.17;13.47;;;7.90;99.90;;;;;;5037609;28;20227;-46
2023/04/16 00:42:46;;;;;;;18.20;12.93;;;7.90;99.90;;;;;;5057861;28;20199;-48
2023/04/16 00:45:14;;;;;;;20.37;13.13;;;7.90;99.90;;;;;;5058781;28;20249;-50
2023/04/16 00:47:41;;;;;;;16.27;12.43;;;7.90;99.90;;;;;;5060380;28;20588;-50
2023/04/16 00:50:30;;;;;;;19.20;12.53;;;7.90;99.90;;;;;;5050490;28;20584;-49
2023/04/16 00:52:58;;;;;;;18.53;12.60;;;7.90;99.90;;;;;;5066062;28;20186;-45
2023/04/16 00:55:26;;;;;;;18.47;13.40;;;7.90;99.90;;;;;;5041824;28;20214;-47
2023/04/16 00:57:53;;;;;;;18.47;12.87;;;7.90;99.90;;;;;;5051599;28;20207;-49
2023/04/16 01:00:20;;;;;;;19.20;13.80;;;8.00;99.90;;;;;;5068980;28;20198;-47
2023/04/16 01:02:47;;;;;;;19.93;12.43;;;8.00;99.90;;;;;;5042842;28;20192;-46
2023/04/16 01:05:14;;;;;;;20.60;12.80;;;8.00;99.90;;;;;;5061811;28;20252;-46
2023/04/16 01:07:41;;;;;;;20.73;12.30;;;8.00;99.90;;;;;;5049879;28;20220;-49
2023/04/16 01:10:28;;;;;;;18.37;12.87;;;8.00;99.90;;;;;;5057152;28;20284;-47
2023/04/16 01:12:55;;;;;;;18.70;12.30;;;8.00;99.90;;;;;;5048168;28;20198;-48
2023/04/16 01:15:22;;;;;;;16.87;12.77;;;8.00;99.90;;;;;;5058566;28;20694;-48
2023/04/16 01:17:49;;;;;;;20.43;13.03;;;8.00;99.90;;;;;;5052713;28;20999;-50
2023/04/16 01:20:17;;;;;;;19.50;12.67;;;8.00;99.90;;;;;;5069238;28;20194;-46
2023/04/16 01:22:45;;;;;;;17.03;12.87;;;8.00;99.90;;;;;;5054939;28;20199;-46
2023/04/16 01:25:15;;;;;;;17.97;12.33;;;8.00;99.90;;;;;;5073102;28;20259;-44
2023/04/16 01:27:42;;;;;;;18.70;12.97;;;8.10;99.90;;;;;;5046417;28;20234;-47
2023/04/16 01:30:10;;;;;;;17.53;11.73;;;8.10;99.90;;;;;;5059406;28;20222;-49
2023/04/16 01:32:57;;;;;;;17.30;12.03;;;8.10;99.90;;;;;;5052489;28;20207;-44
2023/04/16 01:35:24;;;;;;;18.47;12.87;;;8.10;99.90;;;;;;5061658;28;20199;-52
2023/04/16 01:37:53;;;;;;;18.63;12.13;;;8.10;99.90;;;;;;5057988;28;20220;-47
2023/04/16 01:40:20;;;;;;;14.60;11.47;;;8.10;99.90;;;;;;5072385;28;20213;-49
2023/04/16 01:42:47;;;;;;;18.93;12.10;;;8.10;99.90;;;;;;5035234;28;21025;-48
2023/04/16 01:45:15;;;;;;;17.37;12.13;;;8.10;99.90;;;;;;5055242;28;20195;-48
2023/04/16 01:47:41;;;;;;;19.37;11.53;;;8.20;99.90;;;;;;5068560;28;20217;-45
2023/04/16 01:50:10;;;;;;;15.73;11.03;;;8.20;99.90;;;;;;5063063;28;20245;-51
2023/04/16 01:52:37;;;;;;;15.53;11.97;;;8.20;99.90;;;;;;5052576;28;20226;-50
2023/04/16 01:55:06;;;;;;;14.80;10.90;;;8.20;99.90;;;;;;5067430;28;20191;-47
2023/04/16 01:57:33;;;;;;;17.37;12.57;;;8.20;99.90;;;;;;5044636;28;20591;-46
2023/04/16 02:00:00;;;;;;;18.73;12.23;;;8.20;99.90;;;;;;5053929;28;20242;-48
2023/04/16 02:02:29;;;;;;;17.10;11.90;;;8.20;99.90;;;;;;5054374;28;20282;-50
2023/04/16 02:05:19;;;;;;;19.70;12.57;;;8.20;99.90;;;;;;5058452;28;20221;-45
2023/04/16 02:07:46;;;;;;;17.80;11.97;;;8.20;99.90;;;;;;5051385;28;20218;-48
2023/04/16 02:10:14;;;;;;;20.63;12.53;;;8.20;99.90;;;;;;5056610;28;20208;-45
2023/04/16 02:12:42;;;;;;;17.30;12.37;;;8.20;99.90;;;;;;5050890;28;20276;-47
2023/04/16 02:15:10;;;;;;;16.13;11.60;;;8.20;99.90;;;;;;5029674;28;20204;-46
2023/04/16 02:17:36;;;;;;;18.03;12.33;;;8.20;99.90;;;;;;5054089;28;20710;-48
2023/04/16 02:20:09;;;;;;;18.63;12.70;;;8.20;99.90;;;;;;5066860;28;20219;-48
2023/04/16 02:22:43;;;;;;;16.70;13.30;;;8.20;99.90;;;;;;5048100;28;23684;-47
2023/04/16 02:25:14;;;;;;;18.47;13.67;;;8.20;99.90;;;;;;5050316;28;20196;-48
2023/04/16 02:27:43;;;;;;;18.93;13.83;;;8.20;99.90;;;;;;5047525;28;21066;-45
2023/04/16 02:30:24;;;;;;;17.07;13.53;;;8.20;99.90;;;;;;5042706;28;20653;-48
2023/04/16 02:32:51;;;;;;;17.93;13.43;;;8.20;99.90;;;;;;5059832;28;20281;-46
2023/04/16 02:35:20;;;;;;;18.50;13.67;;;8.20;99.90;;;;;;5063161;28;20300;-45
2023/04/16 02:37:47;;;;;;;26.30;15.40;;;8.20;99.90;;;;;;5064855;28;20183;-50
2023/04/16 02:40:15;;;;;;;17.10;13.27;;;8.20;99.90;;;;;;5047485;28;20214;-49
2023/04/16 02:42:42;;;;;;;21.00;13.20;;;8.20;99.90;;;;;;5053962;28;20345;-46
2023/04/16 02:45:11;;;;;;;19.50;14.10;;;8.20;99.90;;;;;;5047534;28;20289;-49
2023/04/16 02:47:59;;;;;;;20.27;13.40;;;8.20;99.90;;;;;;5065182;28;20226;-46
2023/04/16 02:50:26;;;;;;;19.53;14.00;;;8.20;99.90;;;;;;5056388;28;20194;-47
2023/04/16 02:52:53;;;;;;;19.13;14.77;;;8.20;99.90;;;;;;5062486;28;20197;-47
2023/04/16 02:55:21;;;;;;;24.60;13.83;;;8.30;99.90;;;;;;5059222;28;20205;-44
2023/04/16 02:57:48;;;;;;;20.03;14.07;;;8.20;99.90;;;;;;5057970;28;20212;-45
2023/04/16 03:00:15;;;;;;;17.77;13.30;;;8.20;99.90;;;;;;5068634;28;20202;-46
2023/04/16 03:02:42;;;;;;;18.77;14.23;;;8.20;99.90;;;;;;5039656;28;20217;-47
2023/04/16 03:05:09;;;;;;;17.53;14.07;;;8.30;99.90;;;;;;5063553;28;20278;-45
2023/04/16 03:07:38;;;;;;;18.40;13.80;;;8.30;99.90;;;;;;5064817;28;20276;-48
2023/04/16 03:10:06;;;;;;;17.60;12.87;;;8.30;99.90;;;;;;5049999;28;20299;-45
2023/04/16 03:12:34;;;;;;;20.10;14.03;;;8.30;99.90;;;;;;5061103;28;20198;-50
2023/04/16 03:15:01;;;;;;;20.60;14.07;;;8.30;99.90;;;;;;5061120;28;20198;-45
2023/04/16 03:17:29;;;;;;;18.03;14.00;;;8.30;99.90;;;;;;5036789;28;20721;-47
2023/04/16 03:19:56;;;;;;;18.60;13.87;;;8.30;99.90;;;;;;5054612;28;20222;-45
2023/04/16 03:22:23;;;;;;;18.50;14.03;;;8.30;99.90;;;;;;5058823;28;20191;-49
2023/04/16 03:24:50;;;;;;;18.03;13.20;;;8.30;99.90;;;;;;5048949;28;20636;-49
2023/04/16 03:27:17;;;;;;;17.53;13.10;;;8.30;99.90;;;;;;5050230;28;20199;-45
2023/04/16 03:29:46;;;;;;;18.57;14.23;;;8.30;99.90;;;;;;5051173;28;20222;-45
2023/04/16 03:32:14;;;;;;;17.90;14.53;;;8.30;99.90;;;;;;5058166;28;20195;-44
2023/04/16 03:34:41;;;;;;;19.43;14.03;;;8.30;99.90;;;;;;5034666;28;20206;-49
2023/04/16 03:37:10;;;;;;;23.87;14.37;;;8.30;99.90;;;;;;5058225;28;20215;-47
2023/04/16 03:39:38;;;;;;;21.50;14.00;;;8.30;99.90;;;;;;5057134;28;20242;-48
2023/04/16 03:42:05;;;;;;;19.53;14.47;;;8.30;99.90;;;;;;5049191;28;20298;-45
2023/04/16 03:44:34;;;;;;;18.63;13.87;;;8.40;99.90;;;;;;5056756;28;20222;-49
2023/04/16 03:47:03;;;;;;;22.13;14.47;;;8.40;99.90;;;;;;5057498;28;20290;-48
2023/04/16 03:49:30;;;;;;;18.40;14.17;;;8.40;99.90;;;;;;5024882;28;20242;-47
2023/04/16 03:51:58;;;;;;;16.37;12.90;;;8.40;99.90;;;;;;5053616;28;20191;-45
2023/04/16 03:54:26;;;;;;;22.60;14.63;;;8.40;99.90;;;;;;5071504;28;20202;-53
2023/04/16 03:57:04;;;;;;;19.00;12.87;;;8.40;99.90;;;;;;5076019;28;20205;-47
2023/04/16 03:59:31;;;;;;;19.30;13.93;;;8.40;99.90;;;;;;5060688;28;20221;-48
2023/04/16 04:01:58;;;;;;;17.63;13.23;;;8.40;99.90;;;;;;5070505;28;20196;-51
2023/04/16 04:04:27;;;;;;;20.60;14.23;;;8.40;99.90;;;;;;5057828;28;20244;-52
2023/04/16 04:06:57;;;;;;;18.23;13.37;;;8.40;99.90;;;;;;5058203;28;20993;-44
2023/04/16 04:09:25;;;;;;;18.23;13.20;;;8.40;99.90;;;;;;5071164;28;20253;-49
2023/04/16 04:11:53;;;;;;;22.43;14.23;;;8.40;99.90;;;;;;5072191;28;20953;-46
2023/04/16 04:14:20;;;;;;;16.43;13.47;;;8.40;99.90;;;;;;5054748;28;20203;-45
2023/04/16 04:16:47;;;;;;;16.90;12.53;;;8.40;99.90;;;;;;5047105;28;20202;-47
2023/04/16 04:19:14;;;;;;;20.00;13.30;;;8.40;99.90;;;;;;5071059;28;20229;-46
2023/04/16 04:21:43;;;;;;;17.73;13.80;;;8.40;99.90;;;;;;5033160;28;20241;-48
2023/04/16 04:24:10;;;;;;;18.53;13.80;;;8.40;99.90;;;;;;5064603;28;20201;-45
2023/04/16 04:26:37;;;;;;;20.63;13.33;;;8.40;99.90;;;;;;5058530;28;20283;-52
2023/04/16 04:29:05;;;;;;;20.00;13.50;;;8.40;99.90;;;;;;5049567;28;20238;-49
2023/04/16 04:31:32;;;;;;;20.77;13.57;;;8.40;99.90;;;;;;5049598;28;20211;-50
2023/04/16 04:33:59;;;;;;;20.13;13.77;;;8.50;99.90;;;;;;5054466;28;20409;-45
2023/04/16 04:36:27;;;;;;;19.10;13.33;;;8.40;99.90;;;;;;5046495;28;20565;-50
2023/04/16 04:38:56;;;;;;;17.77;12.77;;;8.40;99.90;;;;;;5056469;28;20940;-45
2023/04/16 04:41:25;;;;;;;19.17;13.27;;;8.50;99.90;;;;;;5060819;28;20280;-50
2023/04/16 04:43:52;;;;;;;17.37;12.97;;;8.50;99.90;;;;;;5049342;28;20270;-47
2023/04/16 04:46:19;;;;;;;15.50;13.27;;;8.50;99.90;;;;;;5049208;28;20554;-45
2023/04/16 04:49:08;;;;;;;19.23;13.60;;;8.50;99.90;;;;;;5057651;28;20230;-45
2023/04/16 04:51:35;;;;;;;19.40;14.17;;;8.50;99.90;;;;;;5043698;28;20207;-51
2023/04/16 04:54:03;;;;;;;19.87;13.87;;;8.50;99.90;;;;;;5056588;28;20203;-46
2023/04/16 04:56:30;;;;;;;19.30;13.53;;;8.50;99.90;;;;;;5060155;28;20282;-51
2023/04/16 04:58:57;;;;;;;22.83;14.70;;;8.50;99.90;;;;;;5049831;28;20328;-49
2023/04/16 05:01:24;;;;;;;19.70;13.77;;;8.50;99.90;;;;;;5036296;28;20265;-49
2023/04/16 05:03:51;;;;;;;19.20;14.30;;;8.50;99.90;;;;;;5072071;28;20197;-48
2023/04/16 05:06:17;;;;;;;17.83;12.90;;;8.50;99.90;;;;;;5045291;28;20199;-49
2023/04/16 05:08:44;;;;;;;21.77;14.13;;;8.50;99.90;;;;;;5051464;28;21025;-45
2023/04/16 05:11:12;;;;;;;18.17;13.63;;;8.50;99.90;;;;;;5048940;28;20278;-49
2023/04/16 05:13:39;;;;;;;17.50;13.50;;;8.50;99.90;;;;;;5052814;28;20202;-47
2023/04/16 05:16:07;;;;;;;21.37;13.77;;;8.60;99.90;;;;;;5055452;28;20287;-47
2023/04/16 05:18:34;;;;;;;17.50;12.90;;;8.60;99.90;;;;;;5063613;28;20218;-45
2023/04/16 05:21:03;;;;;;;19.57;13.57;;;8.60;99.90;;;;;;5050007;28;20289;-45
2023/04/16 05:23:29;;;;;;;18.10;14.00;;;8.60;99.90;;;;;;5040538;28;20201;-46
2023/04/16 05:25:57;;;;;;;19.27;13.77;;;8.60;99.90;;;;;;5053966;28;20222;-50
2023/04/16 05:28:25;;;;;;;18.23;14.10;;;8.60;99.90;;;;;;5054100;28;20223;-49
2023/04/16 05:30:52;;;;;;;18.57;14.13;;;8.70;99.90;;;;;;5062411;28;20211;-46
2023/04/16 05:33:18;;;;;;;23.47;14.07;;;8.70;99.90;;;;;;5064406;28;20204;-50
2023/04/16 05:35:45;;;;;;;21.77;13.90;;;8.70;99.90;;;;;;5051494;28;20478;-47
2023/04/16 05:38:13;;;;;;;21.00;14.27;;;8.70;99.90;;;;;;5032803;28;20222;-49
2023/04/16 05:40:40;;;;;;;19.10;13.63;;;8.70;99.90;;;;;;5054915;28;20182;-47
2023/04/16 05:43:07;;;;;;;20.10;13.83;;;8.70;99.90;;;;;;5070815;28;20205;-47
2023/04/16 05:45:39;;;;;;;19.70;14.37;;;8.80;99.90;;;;;;5060493;28;20276;-48
2023/04/16 05:48:08;;;;;;;20.37;14.50;;;8.80;99.90;;;;;;5058746;28;20198;-51
2023/04/16 05:50:35;;;;;;;19.90;13.53;;;8.80;99.90;;;;;;5058614;28;20252;-45
2023/04/16 05:53:02;;;;;;;20.43;15.00;;;8.80;99.90;;;;;;5057492;28;20202;-47
2023/04/16 05:55:29;;;;;;;20.03;13.50;;;8.80;99.90;;;;;;5030539;28;20202;-49
2023/04/16 05:57:57;;;;;;;19.23;13.53;;;8.80;99.90;;;;;;5064114;28;20210;-48
2023/04/16 06:00:24;;;;;;;21.33;14.10;;;8.80;99.90;;;;;;5052885;28;20190;-47
2023/04/16 06:02:52;;;;;;;19.43;13.63;;;8.80;99.90;;;;;;5052888;28;20278;-49
2023/04/16 06:05:19;;;;;;;23.23;14.73;;;8.90;99.90;;;;;;5062013;28;20198;-47
2023/04/16 06:07:46;;;;;;;19.80;13.90;;;8.90;99.90;;;;;;5053139;28;20285;-46
2023/04/16 06:10:13;;;;;;;19.07;14.17;;;8.90;99.90;;;;;;5033866;28;20603;-52
2023/04/16 06:12:41;;;;;;;18.93;13.90;;;8.90;99.90;;;;;;5056493;28;20218;-49
2023/04/16 06:15:09;;;;;;;21.07;14.07;;;9.00;99.90;;;;;;5062821;28;20689;-49
2023/04/16 06:17:36;;;;;;;19.73;13.37;;;9.00;99.90;;;;;;5054648;28;21733;-46
2023/04/16 06:20:06;;;;;;;21.30;13.60;;;9.00;99.90;;;;;;5059705;28;20218;-47
2023/04/16 06:22:33;;;;;;;21.13;14.00;;;9.00;99.90;;;;;;5044326;28;20190;-49
2023/04/16 06:25:01;;;;;;;18.83;14.10;;;9.00;99.90;;;;;;5037858;28;20206;-51
2023/04/16 06:27:27;;;;;;;15.73;12.27;;;9.10;99.90;;;;;;5059461;28;20663;-45
2023/04/16 06:29:54;;;;;;;17.50;12.43;;;9.10;99.90;;;;;;5066137;28;20229;-47
2023/04/16 06:32:21;;;;;;;17.60;13.03;;;9.10;99.90;;;;;;5060988;28;20190;-45
2023/04/16 06:34:49;;;;;;;21.90;13.90;;;9.10;99.90;;;;;;5046833;28;20401;-49
2023/04/16 06:37:17;;;;;;;17.87;13.80;;;9.10;99.90;;;;;;5057200;28;20227;-45
2023/04/16 06:39:45;;;;;;;20.60;13.27;;;9.10;99.90;;;;;;5052001;28;20215;-48
2023/04/16 06:42:11;;;;;;;17.73;13.87;;;9.10;99.90;;;;;;5055997;28;20200;-47
2023/04/16 06:44:39;;;;;;;18.30;12.93;;;9.20;99.90;;;;;;5057482;28;20256;-47
2023/04/16 06:47:05;;;;;;;19.83;13.23;;;9.20;99.90;;;;;;5052277;28;20202;-50
2023/04/16 06:49:33;;;;;;;16.73;12.60;;;9.20;99.90;;;;;;5046165;28;20226;-47
2023/04/16 06:51:59;;;;;;;19.87;13.57;;;9.20;99.90;;;;;;5057470;28;20232;-48
2023/04/16 06:54:28;;;;;;;19.70;13.33;;;9.20;99.90;;;;;;5032562;28;20213;-48
2023/04/16 06:56:55;;;;;;;17.10;12.60;;;9.20;99.90;;;;;;5057556;28;20257;-48
2023/04/16 06:59:22;;;;;;;18.33;12.27;;;9.20;99.90;;;;;;5053967;28;20309;-45
2023/04/16 07:01:50;;;;;;;16.67;12.20;;;9.30;99.90;;;;;;5067710;28;20198;-50
2023/04/16 07:04:16;;;;;;;23.53;12.53;;;9.30;99.90;;;;;;5054289;28;20774;-49
2023/04/16 07:06:43;;;;;;;17.23;12.50;;;9.40;99.90;;;;;;5056220;28;20229;-46
2023/04/16 07:09:10;;;;;;;17.70;12.80;;;9.40;99.90;;;;;;5050985;28;20217;-47
2023/04/16 07:11:38;;;;;;;16.07;12.33;;;9.40;99.90;;;;;;5044816;28;20213;-46
2023/04/16 07:14:06;;;;;;;16.87;11.87;;;9.40;99.90;;;;;;5053219;28;20189;-45
2023/04/16 07:16:33;;;;;;;18.30;13.23;;;9.40;99.90;;;;;;5059090;28;20278;-49
2023/04/16 07:19:00;;;;;;;16.27;12.33;;;9.50;99.90;;;;;;5054133;28;20226;-49
2023/04/16 07:21:27;;;;;;;16.90;12.23;;;9.40;99.90;;;;;;5053382;28;20201;-45
2023/04/16 07:23:55;;;;;;;19.50;12.17;;;9.50;99.90;;;;;;5053066;28;20209;-50
2023/04/16 07:26:22;;;;;;;15.97;11.53;;;9.50;99.90;;;;;;5035124;28;20921;-50
2023/04/16 07:28:50;;;;;;;16.70;12.53;;;9.50;99.90;;;;;;5061225;28;20892;-49
2023/04/16 07:31:17;;;;;;;18.87;12.53;;;9.60;99.90;;;;;;5060000;28;20204;-49
2023/04/16 07:33:44;;;;;;;16.47;12.60;;;9.60;99.90;;;;;;5056629;28;20213;-45
2023/04/16 07:36:11;;;;;;;17.80;11.87;;;9.60;99.90;;;;;;5053689;28;20191;-48
2023/04/16 07:38:38;;;;;;;18.67;11.57;;;9.70;99.90;;;;;;5061817;28;20219;-47
2023/04/16 07:41:04;;;;;;;19.27;11.67;;;9.80;99.90;;;;;;5034853;28;20205;-47
2023/04/16 07:43:32;;;;;;;18.33;12.53;;;9.80;99.90;;;;;;5062927;28;20195;-47
2023/04/16 07:46:00;;;;;;;16.27;11.50;;;9.90;99.90;;;;;;5046367;28;20191;-49
2023/04/16 07:48:27;;;;;;;16.73;11.23;;;9.80;99.90;;;;;;5065605;28;20234;-49
2023/04/16 07:50:54;;;;;;;16.13;11.67;;;9.80;99.90;;;;;;5053354;28;20706;-47
2023/04/16 07:53:21;;;;;;;16.43;11.17;;;9.80;99.90;;;;;;5062630;28;21057;-46
2023/04/16 07:55:47;;;;;;;16.07;12.03;;;9.90;99.90;;;;;;5058170;28;20604;-51
2023/04/16 07:58:15;;;;;;;15.30;11.70;;;9.90;99.90;;;;;;5030344;28;20235;-46
2023/04/16 08:00:41;;;;;;;14.97;11.87;;;10.00;99.90;;;;;;5054870;28;20195;-45
2023/04/16 08:03:11;;;;;;;14.30;11.20;;;10.00;99.90;;;;;;5047448;28;20196;-46
2023/04/16 08:05:38;;;;;;;15.17;10.80;;;10.00;99.90;;;;;;5059438;28;20206;-48
2023/04/16 08:08:05;;;;;;;15.43;11.53;;;9.90;99.90;;;;;;5052022;28;20801;-45
2023/04/16 08:10:32;;;;;;;15.90;11.80;;;9.90;99.90;;;;;;5057562;28;20279;-48
2023/04/16 08:13:00;;;;;;;14.83;11.57;;;10.00;99.90;;;;;;5034075;28;20191;-46
2023/04/16 08:15:28;;;;;;;19.27;11.63;;;10.00;99.90;;;;;;5065419;28;20198;-45
2023/04/16 08:17:54;;;;;;;14.40;11.00;;;10.00;99.90;;;;;;5061706;28;20313;-51
2023/04/16 08:20:23;;;;;;;17.23;11.27;;;10.10;99.90;;;;;;5058228;28;20216;-45
2023/04/16 08:22:50;;;;;;;14.03;10.60;;;10.10;99.90;;;;;;5056997;28;20300;-49
2023/04/16 08:25:17;;;;;;;14.40;11.27;;;10.10;99.90;;;;;;5045965;28;20205;-48
2023/04/16 08:27:44;;;;;;;15.43;11.73;;;10.20;99.90;;;;;;5044796;28;20245;-45
2023/04/16 08:30:11;;;;;;;15.00;11.17;;;10.30;99.90;;;;;;5040090;28;20350;-49
2023/04/16 08:32:38;;;;;;;14.07;11.37;;;10.30;99.90;;;;;;5065106;28;20195;-47
2023/04/16 08:35:05;;;;;;;13.37;11.20;;;10.30;99.90;;;;;;5053620;28;20638;-46
2023/04/16 08:37:33;;;;;;;15.70;11.53;;;10.20;99.90;;;;;;5054445;28;20819;-48
2023/04/16 08:40:01;;;;;;;21.23;11.67;;;10.20;99.90;;;;;;5049020;28;20218;-46
2023/04/16 08:42:31;;;;;;;15.47;11.33;;;10.20;99.90;;;;;;5053138;28;20699;-46
2023/04/16 08:45:06;;;;;;;14.47;11.10;;;10.20;99.90;;;;;;5043644;28;20210;-51
2023/04/16 08:47:35;;;;;;;15.23;11.53;;;10.30;99.90;;;;;;5064458;28;20575;-46
2023/04/16 08:50:23;;;;;;;14.80;11.10;;;10.30;99.90;;;;;;5054235;28;20233;-47
2023/04/16 08:52:53;;;;;;;17.40;11.13;;;10.40;99.90;;;;;;5045971;28;20230;-48
2023/04/16 08:55:23;;;;;;;14.83;10.80;;;10.50;99.90;;;;;;5054426;28;20245;-49
2023/04/16 08:57:53;;;;;;;12.47;10.40;;;10.60;99.90;;;;;;5059434;28;20323;-45
2023/04/16 09:00:21;;;;;;;12.83;10.67;;;10.70;99.90;;;;;;5043827;28;20221;-50
2023/04/16 09:02:50;;;;;;;15.10;11.30;;;10.70;99.90;;;;;;5061528;28;20217;-46
2023/04/16 09:05:19;;;;;;;16.97;11.03;;;10.80;99.90;;;;;;5068231;28;20673;-47
2023/04/16 09:07:47;;;;;;;13.80;10.80;;;10.80;99.90;;;;;;5042833;28;20281;-46
2023/04/16 09:10:16;;;;;;;14.63;10.50;;;10.80;99.90;;;;;;5066298;28;20214;-49
2023/04/16 09:12:44;;;;;;;11.47;10.27;;;10.80;99.90;;;;;;5077255;28;20197;-46
2023/04/16 09:15:12;;;;;;;13.33;10.40;;;10.80;99.90;;;;;;5055564;28;20211;-46
2023/04/16 09:17:57;;;;;;;16.13;11.33;;;10.90;99.90;;;;;;5064735;28;20217;-45
2023/04/16 09:20:25;;;;;;;13.77;10.87;;;10.80;99.90;;;;;;5052961;28;20198;-47
2023/04/16 09:22:52;;;;;;;13.20;11.27;;;10.70;99.90;;;;;;5044347;28;20198;-45
2023/04/16 09:25:22;;;;;;;15.53;11.70;;;10.70;99.90;;;;;;5060871;28;20187;-50
2023/04/16 09:27:50;;;;;;;14.10;10.83;;;10.70;99.90;;;;;;5049635;28;20229;-47
2023/04/16 09:30:36;;;;;;;16.23;11.40;;;10.70;99.90;;;;;;5056551;28;20327;-47
2023/04/16 09:33:15;;;;;;;15.27;11.33;;;10.80;99.90;;;;;;5034558;28;20210;-48
2023/04/16 09:35:46;;;;;;;16.87;11.10;;;10.80;99.90;;;;;;5058907;28;20284;-46
2023/04/16 09:38:13;;;;;;;14.87;11.07;;;10.80;99.90;;;;;;5043608;28;20203;-48
2023/04/16 09:40:41;;;;;;;13.43;10.20;;;10.80;99.90;;;;;;5059548;28;20195;-46
2023/04/16 09:43:13;;;;;;;13.33;10.30;;;10.70;99.90;;;;;;5060249;28;20213;-49
2023/04/16 09:45:50;;;;;;;13.40;11.57;;;10.70;99.90;;;;;;5058493;28;20579;-45
2023/04/16 09:48:28;;;;;;;14.37;10.97;;;10.60;99.90;;;;;;5016375;28;20286;-48
2023/04/16 09:50:56;;;;;;;14.27;10.13;;;10.60;99.90;;;;;;5050788;28;20218;-46
2023/04/16 09:53:26;;;;;;;12.87;10.27;;;10.50;99.90;;;;;;5043563;28;20197;-46
2023/04/16 09:56:16;;;;;;;14.33;11.10;;;10.50;99.90;;;;;;5060111;28;20213;-51
2023/04/16 09:58:43;;;;;;;13.80;11.00;;;10.60;99.90;;;;;;5054431;28;20223;-47
2023/04/16 10:01:12;;;;;;;12.93;10.07;;;10.60;99.90;;;;;;5049119;28;20227;-49
2023/04/16 10:03:40;;;;;;;12.30;10.07;;;10.60;99.90;;;;;;5036127;28;20268;-47
2023/04/16 10:06:16;;;;;;;18.37;11.50;;;10.70;99.90;;;;;;5055779;28;20203;-50
2023/04/16 10:08:44;;;;;;;12.93;11.57;;;10.70;99.90;;;;;;5055666;28;20631;-46
2023/04/16 10:11:13;;;;;;;14.10;10.00;;;10.70;99.90;;;;;;5056985;28;20215;-47
2023/04/16 10:13:41;;;;;;;13.63;10.40;;;10.70;99.90;;;;;;5061254;28;20651;-46
2023/04/16 10:16:09;;;;;;;16.47;11.13;;;10.70;99.90;;;;;;5050645;28;20190;-46
2023/04/16 10:18:36;;;;;;;13.17;11.13;;;10.70;99.90;;;;;;5032026;28;20336;-48
2023/04/16 10:21:03;;;;;;;15.57;10.83;;;10.70;99.90;;;;;;5058490;28;20199;-46
2023/04/16 10:23:30;;;;;;;14.57;11.13;;;10.70;99.90;;;;;;5054231;28;20350;-46
2023/04/16 10:26:19;;;;;;;18.50;10.50;;;10.70;99.90;;;;;;5059907;28;20193;-47
2023/04/16 10:28:48;;;;;;;12.47;10.70;;;10.60;99.90;;;;;;5056105;28;20744;-47
2023/04/16 10:31:15;;;;;;;16.80;11.83;;;10.60;99.90;;;;;;5050933;28;20771;-48
2023/04/16 10:33:43;;;;;;;17.07;11.83;;;10.50;99.90;;;;;;5033905;28;20230;-46
2023/04/16 10:36:12;;;;;;;15.40;11.17;;;10.50;99.90;;;;;;5057284;28;20277;-47
2023/04/16 10:38:40;;;;;;;16.87;11.70;;;10.50;99.90;;;;;;5058092;28;20226;-47
2023/04/16 10:41:08;;;;;;;19.03;12.13;;;10.60;99.90;;;;;;5054078;28;20199;-51
2023/04/16 10:43:40;;;;;;;16.10;11.63;;;10.60;99.90;;;;;;5055598;28;20186;-47
2023/04/16 10:46:20;;;;;;;16.07;11.37;;;10.60;99.90;;;;;;5048201;28;20195;-46
2023/04/16 10:48:49;;;;;;;15.00;11.63;;;10.60;99.90;;;;;;5056494;28;20325;-47
2023/04/16 10:51:26;;;;;;;12.93;10.60;;;10.60;99.90;;;;;;5045201;28;20226;-49
2023/04/16 10:53:55;;;;;;;16.03;11.87;;;10.70;99.90;;;;;;5054686;28;20194;-49
2023/04/16 10:56:26;;;;;;;14.17;11.57;;;10.70;99.90;;;;;;5050756;28;20210;-48
2023/04/16 10:58:55;;;;;;;13.97;11.60;;;10.70;99.90;;;;;;5045566;28;20242;-46
2023/04/16 11:01:31;;;;;;;14.13;11.77;;;10.70;99.90;;;;;;5055480;28;20201;-49
2023/04/16 11:04:00;;;;;;;13.37;11.47;;;10.70;99.90;;;;;;5048436;28;20950;-46
2023/04/16 11:06:28;;;;;;;18.37;12.70;;;10.70;99.90;;;;;;5040649;28;20303;-47
2023/04/16 11:08:55;;;;;;;16.07;12.33;;;10.70;99.90;;;;;;5054100;28;20293;-48
2023/04/16 11:11:23;;;;;;;15.73;12.97;;;10.70;99.90;;;;;;5047856;28;20211;-47
2023/04/16 11:13:54;;;;;;;15.40;12.47;;;10.70;99.90;;;;;;5044660;28;20821;-46
2023/04/16 11:16:21;;;;;;;16.27;12.50;;;10.60;99.90;;;;;;5058989;28;20735;-46
2023/04/16 11:18:49;;;;;;;15.47;12.83;;;10.70;99.90;;;;;;5053602;28;20225;-47
2023/04/16 11:21:38;;;;;;;18.37;11.80;;;10.70;99.90;;;;;;5032391;28;20626;-47
2023/04/16 11:24:05;;;;;;;15.67;12.63;;;10.70;99.90;;;;;;5052134;28;20628;-47
2023/04/16 11:26:32;;;;;;;18.70;13.13;;;10.80;99.90;;;;;;5039791;28;20289;-49
2023/04/16 11:28:59;;;;;;;15.93;12.60;;;10.70;99.90;;;;;;5065499;28;20953;-46
2023/04/16 11:31:26;;;;;;;18.07;12.87;;;10.70;99.90;;;;;;5058739;28;20576;-46
2023/04/16 11:33:58;;;;;;;14.77;12.10;;;10.80;99.90;;;;;;5049522;28;20561;-48
2023/04/16 11:36:26;;;;;;;18.03;12.33;;;10.80;99.90;;;;;;5040247;28;20555;-50
2023/04/16 11:39:03;;;;;;;17.57;12.47;;;10.80;99.90;;;;;;5043250;28;20225;-49
2023/04/16 11:41:29;;;;;;;15.17;12.03;;;10.80;99.90;;;;;;5049018;28;20239;-47
2023/04/16 11:43:56;;;;;;;15.10;11.80;;;10.90;99.90;;;;;;5061210;28;20249;-47
2023/04/16 11:46:46;;;;;;;14.07;10.87;;;10.90;99.90;;;;;;5054421;28;20209;-46
2023/04/16 11:49:16;;;;;;;13.27;10.83;;;10.80;99.90;;;;;;5049647;28;20234;-48
2023/04/16 11:51:43;;;;;;;16.93;10.70;;;10.80;99.90;;;;;;5051538;28;20227;-45
2023/04/16 11:54:17;;;;;;;13.57;10.43;;;10.70;99.90;;;;;;5025705;28;20226;-52
2023/04/16 11:56:47;;;;;;;13.17;11.20;;;10.80;99.90;;;;;;5051714;28;20214;-47
2023/04/16 11:59:15;;;;;;;14.73;11.47;;;10.70;99.90;;;;;;5059311;28;20648;-48
2023/04/16 12:01:47;;;;;;;17.63;12.27;;;10.70;99.90;;;;;;5053944;28;20199;-47
2023/04/16 12:04:15;;;;;;;13.40;11.17;;;10.80;99.90;;;;;;5055776;28;20199;-48
2023/04/16 12:07:07;;;;;;;16.50;10.90;;;10.80;99.90;;;;;;5042624;28;20217;-48
2023/04/16 12:09:35;;;;;;;15.93;11.63;;;10.90;99.90;;;;;;5035315;28;20245;-49
2023/04/16 12:12:02;;;;;;;16.60;11.43;;;10.90;99.90;;;;;;5053012;28;20287;-49
2023/04/16 12:14:30;;;;;;;16.23;11.60;;;11.00;99.90;;;;;;5054203;28;20202;-48
2023/04/16 12:16:57;;;;;;;13.90;11.33;;;11.10;99.90;;;;;;5062283;28;20361;-45
2023/04/16 12:19:25;;;;;;;14.23;11.03;;;11.20;99.90;;;;;;5065077;28;20221;-51
2023/04/16 12:21:53;;;;;;;14.20;11.10;;;11.20;99.90;;;;;;5050659;28;20213;-48
2023/04/16 12:24:23;;;;;;;15.27;11.03;;;11.20;99.90;;;;;;5043181;28;20694;-50
2023/04/16 12:26:56;;;;;;;12.93;11.10;;;11.30;99.90;;;;;;5053823;28;20210;-46
2023/04/16 12:29:24;;;;;;;11.83;10.57;;;11.40;99.90;;;;;;5058187;28;20229;-50
2023/04/16 12:31:52;;;;;;;16.00;10.97;;;11.40;99.90;;;;;;5064978;28;20279;-48
2023/04/16 12:34:20;;;;;;;15.27;11.80;;;11.50;99.90;;;;;;5056975;28;20200;-49
2023/04/16 12:37:05;;;;;;;14.00;11.27;;;11.40;99.90;;;;;;5046323;28;20427;-45
2023/04/16 12:39:32;;;;;;;15.13;11.93;;;11.30;99.90;;;;;;5036537;28;20245;-46
2023/04/16 12:41:59;;;;;;;15.47;11.17;;;11.30;99.90;;;;;;5055577;28;20187;-50